sensor_id;sensor_type;location;lat;lon;timestamp;P1;durP1;ratioP1;P2;durP2;ratioP2
19595;SDS011;9945;46.010;8.946;2023-01-31T00:01:35;0.40;;;0.40;;
19595;SDS011;9945;46.010;8.946;2023-01-31T00:04:04;0.67;;;0.67;;
19595;SDS011;9945;46.010;8.946;2023-01-31T00:06:34;0.53;;;0.53;;
19595;SDS011;9945;46.010;8.946;2023-01-31T00:09:04;0.40;;;0.40;;
19595;SDS011;9945;46.010;8.946;2023-01-31T00:11:33;0.30;;;0.30;;
19595;SDS011;9945;46.010;8.946;2023-01-31T00:14:00;0.27;;;0.27;;
19595;SDS011;9945;46.010;8.946;2023-01-31T00:16:28;0.20;;;0.20;;
19595;SDS011;9945;46.010;8.946;2023-01-31T00:18:55;0.20;;;0.20;;
19595;SDS011;9945;46.010;8.946;2023-01-31T00:21:25;0.23;;;0.23;;
19595;SDS011;9945;46.010;8.946;2023-01-31T00:23:53;0.30;;;0.30;;
19595;SDS011;9945;46.010;8.946;2023-01-31T00:26:23;0.20;;;0.20;;
19595;SDS011;9945;46.010;8.946;2023-01-31T00:28:51;0.20;;;0.20;;
19595;SDS011;9945;46.010;8.946;2023-01-31T00:31:20;1.43;;;0.20;;
19595;SDS011;9945;46.010;8.946;2023-01-31T00:33:48;0.77;;;0.30;;
19595;SDS011;9945;46.010;8.946;2023-01-31T00:36:17;0.20;;;0.20;;
19595;SDS011;9945;46.010;8.946;2023-01-31T00:38:46;0.27;;;0.20;;
19595;SDS011;9945;46.010;8.946;2023-01-31T00:41:13;0.30;;;0.30;;
19595;SDS011;9945;46.010;8.946;2023-01-31T00:43:42;0.33;;;0.23;;
19595;SDS011;9945;46.010;8.946;2023-01-31T00:46:09;0.20;;;0.20;;
19595;SDS011;9945;46.010;8.946;2023-01-31T00:48:36;0.43;;;0.20;;
19595;SDS011;9945;46.010;8.946;2023-01-31T00:51:03;0.30;;;0.30;;
19595;SDS011;9945;46.010;8.946;2023-01-31T00:53:30;0.33;;;0.33;;
19595;SDS011;9945;46.010;8.946;2023-01-31T00:56:01;0.30;;;0.30;;
19595;SDS011;9945;46.010;8.946;2023-01-31T00:58:29;0.17;;;0.17;;
19595;SDS011;9945;46.010;8.946;2023-01-31T01:01:03;0.20;;;0.20;;
19595;SDS011;9945;46.010;8.946;2023-01-31T01:03:31;0.27;;;0.27;;
19595;SDS011;9945;46.010;8.946;2023-01-31T01:05:58;0.30;;;0.30;;
19595;SDS011;9945;46.010;8.946;2023-01-31T01:08:25;0.30;;;0.30;;
19595;SDS011;9945;46.010;8.946;2023-01-31T01:10:52;0.33;;;0.33;;
19595;SDS011;9945;46.010;8.946;2023-01-31T01:13:19;0.40;;;0.40;;
19595;SDS011;9945;46.010;8.946;2023-01-31T01:15:45;0.40;;;0.40;;
19595;SDS011;9945;46.010;8.946;2023-01-31T01:18:14;0.40;;;0.40;;
19595;SDS011;9945;46.010;8.946;2023-01-31T01:20:40;0.23;;;0.23;;
19595;SDS011;9945;46.010;8.946;2023-01-31T01:23:07;1.60;;;0.30;;
19595;SDS011;9945;46.010;8.946;2023-01-31T01:25:40;0.20;;;0.20;;
19595;SDS011;9945;46.010;8.946;2023-01-31T01:28:08;0.20;;;0.20;;
19595;SDS011;9945;46.010;8.946;2023-01-31T01:30:36;0.30;;;0.30;;
19595;SDS011;9945;46.010;8.946;2023-01-31T01:33:03;0.30;;;0.30;;
19595;SDS011;9945;46.010;8.946;2023-01-31T01:35:31;0.30;;;0.30;;
19595;SDS011;9945;46.010;8.946;2023-01-31T01:37:58;0.30;;;0.30;;
19595;SDS011;9945;46.010;8.946;2023-01-31T01:40:25;0.30;;;0.27;;
19595;SDS011;9945;46.010;8.946;2023-01-31T01:42:51;0.20;;;0.20;;
19595;SDS011;9945;46.010;8.946;2023-01-31T01:45:18;0.40;;;0.40;;
19595;SDS011;9945;46.010;8.946;2023-01-31T01:47:46;0.30;;;0.30;;
19595;SDS011;9945;46.010;8.946;2023-01-31T01:50:16;0.20;;;0.20;;
19595;SDS011;9945;46.010;8.946;2023-01-31T01:52:49;0.47;;;0.20;;
19595;SDS011;9945;46.010;8.946;2023-01-31T01:55:22;0.20;;;0.20;;
19595;SDS011;9945;46.010;8.946;2023-01-31T01:57:54;0.27;;;0.27;;
19595;SDS011;9945;46.010;8.946;2023-01-31T02:00:26;0.30;;;0.30;;
19595;SDS011;9945;46.010;8.946;2023-01-31T02:02:56;0.97;;;0.30;;
19595;SDS011;9945;46.010;8.946;2023-01-31T02:05:25;0.23;;;0.23;;
19595;SDS011;9945;46.010;8.946;2023-01-31T02:07:57;0.40;;;0.40;;
19595;SDS011;9945;46.010;8.946;2023-01-31T02:10:27;0.40;;;0.30;;
19595;SDS011;9945;46.010;8.946;2023-01-31T02:12:57;0.20;;;0.20;;
19595;SDS011;9945;46.010;8.946;2023-01-31T02:15:25;0.40;;;0.40;;
19595;SDS011;9945;46.010;8.946;2023-01-31T02:17:52;0.20;;;0.20;;
19595;SDS011;9945;46.010;8.946;2023-01-31T02:26:31;0.20;;;0.20;;
19595;SDS011;9945;46.010;8.946;2023-01-31T02:29:27;0.40;;;0.40;;
19595;SDS011;9945;46.010;8.946;2023-01-31T02:35:16;0.20;;;0.20;;
19595;SDS011;9945;46.010;8.946;2023-01-31T02:37:53;0.10;;;0.10;;
19595;SDS011;9945;46.010;8.946;2023-01-31T02:40:32;0.30;;;0.20;;
19595;SDS011;9945;46.010;8.946;2023-01-31T02:43:07;0.30;;;0.30;;
19595;SDS011;9945;46.010;8.946;2023-01-31T02:45:40;0.10;;;0.10;;
19595;SDS011;9945;46.010;8.946;2023-01-31T02:48:18;0.30;;;0.30;;
19595;SDS011;9945;46.010;8.946;2023-01-31T02:50:56;0.17;;;0.17;;
19595;SDS011;9945;46.010;8.946;2023-01-31T02:53:30;0.20;;;0.20;;
19595;SDS011;9945;46.010;8.946;2023-01-31T02:56:01;0.20;;;0.20;;
19595;SDS011;9945;46.010;8.946;2023-01-31T02:58:43;0.20;;;0.20;;
19595;SDS011;9945;46.010;8.946;2023-01-31T03:01:16;0.20;;;0.20;;
19595;SDS011;9945;46.010;8.946;2023-01-31T03:03:48;0.20;;;0.20;;
19595;SDS011;9945;46.010;8.946;2023-01-31T03:09:31;0.20;;;0.20;;
19595;SDS011;9945;46.010;8.946;2023-01-31T03:12:30;0.30;;;0.30;;
19595;SDS011;9945;46.010;8.946;2023-01-31T03:15:05;0.20;;;0.20;;
19595;SDS011;9945;46.010;8.946;2023-01-31T03:17:49;0.30;;;0.30;;
19595;SDS011;9945;46.010;8.946;2023-01-31T03:20:23;0.30;;;0.30;;
19595;SDS011;9945;46.010;8.946;2023-01-31T03:22:55;0.20;;;0.20;;
19595;SDS011;9945;46.010;8.946;2023-01-31T03:25:26;0.20;;;0.20;;
19595;SDS011;9945;46.010;8.946;2023-01-31T03:27:57;0.27;;;0.27;;
19595;SDS011;9945;46.010;8.946;2023-01-31T03:30:26;4.63;;;2.43;;
19595;SDS011;9945;46.010;8.946;2023-01-31T03:32:59;3.87;;;3.57;;
19595;SDS011;9945;46.010;8.946;2023-01-31T03:35:32;4.50;;;4.10;;
19595;SDS011;9945;46.010;8.946;2023-01-31T03:38:03;5.27;;;4.77;;
19595;SDS011;9945;46.010;8.946;2023-01-31T03:40:37;11.00;;;8.30;;
19595;SDS011;9945;46.010;8.946;2023-01-31T03:43:07;12.63;;;10.13;;
19595;SDS011;9945;46.010;8.946;2023-01-31T03:45:42;16.63;;;12.33;;
19595;SDS011;9945;46.010;8.946;2023-01-31T03:48:14;18.43;;;12.90;;
19595;SDS011;9945;46.010;8.946;2023-01-31T03:50:45;18.10;;;14.23;;
19595;SDS011;9945;46.010;8.946;2023-01-31T03:53:17;19.87;;;14.87;;
19595;SDS011;9945;46.010;8.946;2023-01-31T03:55:50;21.27;;;15.83;;
19595;SDS011;9945;46.010;8.946;2023-01-31T03:58:21;22.80;;;18.50;;
19595;SDS011;9945;46.010;8.946;2023-01-31T04:00:51;24.57;;;18.47;;
19595;SDS011;9945;46.010;8.946;2023-01-31T04:03:23;26.47;;;18.57;;
19595;SDS011;9945;46.010;8.946;2023-01-31T04:05:58;24.43;;;18.83;;
19595;SDS011;9945;46.010;8.946;2023-01-31T04:08:25;25.33;;;19.40;;
19595;SDS011;9945;46.010;8.946;2023-01-31T04:10:52;27.30;;;19.67;;
19595;SDS011;9945;46.010;8.946;2023-01-31T04:13:20;29.27;;;21.37;;
19595;SDS011;9945;46.010;8.946;2023-01-31T04:15:47;28.43;;;21.50;;
19595;SDS011;9945;46.010;8.946;2023-01-31T04:18:14;34.77;;;23.57;;
19595;SDS011;9945;46.010;8.946;2023-01-31T04:20:40;35.00;;;23.77;;
19595;SDS011;9945;46.010;8.946;2023-01-31T04:23:09;31.83;;;22.57;;
19595;SDS011;9945;46.010;8.946;2023-01-31T04:25:35;34.43;;;24.90;;
19595;SDS011;9945;46.010;8.946;2023-01-31T04:28:02;35.13;;;25.90;;
19595;SDS011;9945;46.010;8.946;2023-01-31T04:30:30;36.33;;;25.57;;
19595;SDS011;9945;46.010;8.946;2023-01-31T04:32:56;34.00;;;25.67;;
19595;SDS011;9945;46.010;8.946;2023-01-31T04:35:23;35.27;;;26.30;;
19595;SDS011;9945;46.010;8.946;2023-01-31T04:37:50;37.27;;;27.73;;
19595;SDS011;9945;46.010;8.946;2023-01-31T04:40:19;36.10;;;27.97;;
19595;SDS011;9945;46.010;8.946;2023-01-31T04:42:46;38.47;;;27.80;;
19595;SDS011;9945;46.010;8.946;2023-01-31T04:45:15;41.47;;;27.97;;
19595;SDS011;9945;46.010;8.946;2023-01-31T04:47:42;40.63;;;29.90;;
19595;SDS011;9945;46.010;8.946;2023-01-31T04:50:09;43.57;;;30.17;;
19595;SDS011;9945;46.010;8.946;2023-01-31T04:52:36;41.10;;;29.97;;
19595;SDS011;9945;46.010;8.946;2023-01-31T04:55:03;41.43;;;28.77;;
19595;SDS011;9945;46.010;8.946;2023-01-31T04:57:32;42.27;;;30.00;;
19595;SDS011;9945;46.010;8.946;2023-01-31T04:59:59;41.93;;;30.53;;
19595;SDS011;9945;46.010;8.946;2023-01-31T05:02:26;44.70;;;31.67;;
19595;SDS011;9945;46.010;8.946;2023-01-31T05:04:53;40.60;;;30.70;;
19595;SDS011;9945;46.010;8.946;2023-01-31T05:07:19;43.60;;;32.37;;
19595;SDS011;9945;46.010;8.946;2023-01-31T05:09:46;43.40;;;31.57;;
19595;SDS011;9945;46.010;8.946;2023-01-31T05:12:13;49.60;;;34.77;;
19595;SDS011;9945;46.010;8.946;2023-01-31T05:14:41;42.20;;;30.57;;
19595;SDS011;9945;46.010;8.946;2023-01-31T05:17:08;47.13;;;32.03;;
19595;SDS011;9945;46.010;8.946;2023-01-31T05:19:35;43.13;;;31.60;;
19595;SDS011;9945;46.010;8.946;2023-01-31T05:22:02;42.17;;;29.87;;
19595;SDS011;9945;46.010;8.946;2023-01-31T05:24:29;45.27;;;30.93;;
19595;SDS011;9945;46.010;8.946;2023-01-31T05:26:57;49.90;;;33.73;;
19595;SDS011;9945;46.010;8.946;2023-01-31T05:29:27;46.80;;;32.03;;
19595;SDS011;9945;46.010;8.946;2023-01-31T05:31:56;43.47;;;31.27;;
19595;SDS011;9945;46.010;8.946;2023-01-31T05:34:24;44.90;;;31.23;;
19595;SDS011;9945;46.010;8.946;2023-01-31T05:36:52;49.30;;;33.87;;
19595;SDS011;9945;46.010;8.946;2023-01-31T05:39:20;43.73;;;32.60;;
19595;SDS011;9945;46.010;8.946;2023-01-31T05:41:47;44.43;;;31.93;;
19595;SDS011;9945;46.010;8.946;2023-01-31T05:44:14;52.60;;;33.73;;
19595;SDS011;9945;46.010;8.946;2023-01-31T05:46:41;45.50;;;32.83;;
19595;SDS011;9945;46.010;8.946;2023-01-31T05:49:09;45.50;;;33.17;;
19595;SDS011;9945;46.010;8.946;2023-01-31T05:51:36;44.97;;;32.23;;
19595;SDS011;9945;46.010;8.946;2023-01-31T05:54:03;45.47;;;32.47;;
19595;SDS011;9945;46.010;8.946;2023-01-31T05:56:30;48.90;;;33.03;;
19595;SDS011;9945;46.010;8.946;2023-01-31T05:58:57;43.80;;;32.43;;
19595;SDS011;9945;46.010;8.946;2023-01-31T06:01:26;46.20;;;32.13;;
19595;SDS011;9945;46.010;8.946;2023-01-31T06:03:54;43.83;;;31.77;;
19595;SDS011;9945;46.010;8.946;2023-01-31T06:06:22;44.70;;;31.40;;
19595;SDS011;9945;46.010;8.946;2023-01-31T06:08:49;42.77;;;32.10;;
19595;SDS011;9945;46.010;8.946;2023-01-31T06:11:16;50.37;;;35.03;;
19595;SDS011;9945;46.010;8.946;2023-01-31T06:13:42;44.70;;;31.23;;
19595;SDS011;9945;46.010;8.946;2023-01-31T06:16:09;44.50;;;31.27;;
19595;SDS011;9945;46.010;8.946;2023-01-31T06:18:37;45.50;;;33.13;;
19595;SDS011;9945;46.010;8.946;2023-01-31T06:21:04;58.97;;;33.17;;
19595;SDS011;9945;46.010;8.946;2023-01-31T06:23:33;46.10;;;33.30;;
19595;SDS011;9945;46.010;8.946;2023-01-31T06:26:00;45.90;;;33.17;;
19595;SDS011;9945;46.010;8.946;2023-01-31T06:28:27;44.57;;;32.87;;
19595;SDS011;9945;46.010;8.946;2023-01-31T06:30:54;46.10;;;30.93;;
19595;SDS011;9945;46.010;8.946;2023-01-31T06:33:21;47.97;;;32.33;;
19595;SDS011;9945;46.010;8.946;2023-01-31T06:35:48;46.47;;;36.75;;
19595;SDS011;9945;46.010;8.946;2023-01-31T06:38:14;44.47;;;32.03;;
19595;SDS011;9945;46.010;8.946;2023-01-31T06:40:43;43.80;;;31.47;;
19595;SDS011;9945;46.010;8.946;2023-01-31T06:43:10;44.93;;;30.47;;
19595;SDS011;9945;46.010;8.946;2023-01-31T06:45:36;43.20;;;31.80;;
19595;SDS011;9945;46.010;8.946;2023-01-31T06:48:03;42.50;;;29.60;;
19595;SDS011;9945;46.010;8.946;2023-01-31T06:50:30;43.00;;;31.27;;
19595;SDS011;9945;46.010;8.946;2023-01-31T06:52:57;41.73;;;30.17;;
19595;SDS011;9945;46.010;8.946;2023-01-31T06:55:24;45.77;;;32.43;;
19595;SDS011;9945;46.010;8.946;2023-01-31T06:57:52;43.37;;;30.70;;
19595;SDS011;9945;46.010;8.946;2023-01-31T07:00:20;44.00;;;30.17;;
19595;SDS011;9945;46.010;8.946;2023-01-31T07:02:49;44.90;;;31.30;;
19595;SDS011;9945;46.010;8.946;2023-01-31T07:05:16;42.13;;;31.03;;
19595;SDS011;9945;46.010;8.946;2023-01-31T07:07:43;44.13;;;30.63;;
19595;SDS011;9945;46.010;8.946;2023-01-31T07:10:10;45.13;;;32.60;;
19595;SDS011;9945;46.010;8.946;2023-01-31T07:12:37;43.70;;;32.10;;
19595;SDS011;9945;46.010;8.946;2023-01-31T07:15:07;46.43;;;31.50;;
19595;SDS011;9945;46.010;8.946;2023-01-31T07:17:35;48.43;;;31.30;;
19595;SDS011;9945;46.010;8.946;2023-01-31T07:20:02;42.33;;;32.07;;
19595;SDS011;9945;46.010;8.946;2023-01-31T07:22:29;42.43;;;30.43;;
19595;SDS011;9945;46.010;8.946;2023-01-31T07:24:56;45.33;;;33.30;;
19595;SDS011;9945;46.010;8.946;2023-01-31T07:27:22;47.40;;;33.30;;
19595;SDS011;9945;46.010;8.946;2023-01-31T07:29:49;54.53;;;32.13;;
19595;SDS011;9945;46.010;8.946;2023-01-31T07:32:17;44.17;;;32.43;;
19595;SDS011;9945;46.010;8.946;2023-01-31T07:34:44;51.73;;;32.73;;
19595;SDS011;9945;46.010;8.946;2023-01-31T07:37:11;44.70;;;32.07;;
19595;SDS011;9945;46.010;8.946;2023-01-31T07:39:38;47.53;;;32.83;;
19595;SDS011;9945;46.010;8.946;2023-01-31T07:42:05;46.17;;;32.20;;
19595;SDS011;9945;46.010;8.946;2023-01-31T07:44:32;47.00;;;32.93;;
19595;SDS011;9945;46.010;8.946;2023-01-31T07:46:58;40.93;;;31.53;;
19595;SDS011;9945;46.010;8.946;2023-01-31T07:49:27;45.60;;;31.73;;
19595;SDS011;9945;46.010;8.946;2023-01-31T07:51:54;44.43;;;32.00;;
19595;SDS011;9945;46.010;8.946;2023-01-31T07:54:21;52.53;;;32.63;;
19595;SDS011;9945;46.010;8.946;2023-01-31T07:56:48;45.80;;;32.60;;
19595;SDS011;9945;46.010;8.946;2023-01-31T07:59:14;46.80;;;29.93;;
19595;SDS011;9945;46.010;8.946;2023-01-31T08:01:42;48.53;;;30.53;;
19595;SDS011;9945;46.010;8.946;2023-01-31T08:04:28;51.87;;;33.43;;
19595;SDS011;9945;46.010;8.946;2023-01-31T08:06:55;48.70;;;30.93;;
19595;SDS011;9945;46.010;8.946;2023-01-31T08:09:23;45.03;;;30.50;;
19595;SDS011;9945;46.010;8.946;2023-01-31T08:11:50;57.73;;;39.97;;
19595;SDS011;9945;46.010;8.946;2023-01-31T08:14:17;51.50;;;33.00;;
19595;SDS011;9945;46.010;8.946;2023-01-31T08:16:49;48.93;;;34.57;;
19595;SDS011;9945;46.010;8.946;2023-01-31T08:19:16;44.67;;;30.07;;
19595;SDS011;9945;46.010;8.946;2023-01-31T08:21:44;37.13;;;27.07;;
19595;SDS011;9945;46.010;8.946;2023-01-31T08:24:11;45.70;;;29.33;;
19595;SDS011;9945;46.010;8.946;2023-01-31T08:26:38;43.83;;;28.57;;
19595;SDS011;9945;46.010;8.946;2023-01-31T08:29:07;43.47;;;29.50;;
19595;SDS011;9945;46.010;8.946;2023-01-31T08:31:33;40.03;;;29.40;;
19595;SDS011;9945;46.010;8.946;2023-01-31T08:34:00;39.03;;;27.90;;
19595;SDS011;9945;46.010;8.946;2023-01-31T08:36:28;44.13;;;28.33;;
19595;SDS011;9945;46.010;8.946;2023-01-31T08:38:58;37.93;;;27.57;;
19595;SDS011;9945;46.010;8.946;2023-01-31T08:41:25;40.63;;;26.07;;
19595;SDS011;9945;46.010;8.946;2023-01-31T08:43:53;38.40;;;27.23;;
19595;SDS011;9945;46.010;8.946;2023-01-31T08:46:22;39.77;;;28.37;;
19595;SDS011;9945;46.010;8.946;2023-01-31T08:48:49;37.07;;;27.73;;
19595;SDS011;9945;46.010;8.946;2023-01-31T08:51:16;46.80;;;27.27;;
19595;SDS011;9945;46.010;8.946;2023-01-31T08:53:43;38.43;;;27.27;;
19595;SDS011;9945;46.010;8.946;2023-01-31T08:56:12;38.67;;;27.30;;
19595;SDS011;9945;46.010;8.946;2023-01-31T08:58:40;36.07;;;27.60;;
19595;SDS011;9945;46.010;8.946;2023-01-31T09:01:08;41.20;;;28.00;;
19595;SDS011;9945;46.010;8.946;2023-01-31T09:03:37;45.07;;;29.33;;
19595;SDS011;9945;46.010;8.946;2023-01-31T09:06:05;39.17;;;27.67;;
19595;SDS011;9945;46.010;8.946;2023-01-31T09:08:33;47.97;;;28.43;;
19595;SDS011;9945;46.010;8.946;2023-01-31T09:11:00;41.03;;;29.53;;
19595;SDS011;9945;46.010;8.946;2023-01-31T09:13:29;48.40;;;29.97;;
19595;SDS011;9945;46.010;8.946;2023-01-31T09:15:56;45.10;;;30.10;;
19595;SDS011;9945;46.010;8.946;2023-01-31T09:18:23;39.97;;;31.00;;
19595;SDS011;9945;46.010;8.946;2023-01-31T09:20:50;47.90;;;32.17;;
19595;SDS011;9945;46.010;8.946;2023-01-31T09:23:17;42.33;;;28.23;;
19595;SDS011;9945;46.010;8.946;2023-01-31T09:25:50;45.22;;;33.53;;
19595;SDS011;9945;46.010;8.946;2023-01-31T09:28:17;40.60;;;29.15;;
19595;SDS011;9945;46.010;8.946;2023-01-31T09:30:46;39.17;;;29.05;;
19595;SDS011;9945;46.010;8.946;2023-01-31T09:33:13;41.67;;;27.95;;
19595;SDS011;9945;46.010;8.946;2023-01-31T09:35:39;39.95;;;28.65;;
19595;SDS011;9945;46.010;8.946;2023-01-31T09:38:06;37.50;;;30.23;;
19595;SDS011;9945;46.010;8.946;2023-01-31T09:40:34;49.70;;;33.42;;
19595;SDS011;9945;46.010;8.946;2023-01-31T09:43:05;41.03;;;31.23;;
19595;SDS011;9945;46.010;8.946;2023-01-31T09:45:36;35.97;;;28.90;;
19595;SDS011;9945;46.010;8.946;2023-01-31T09:48:12;37.28;;;29.95;;
19595;SDS011;9945;46.010;8.946;2023-01-31T09:50:44;41.33;;;31.63;;
19595;SDS011;9945;46.010;8.946;2023-01-31T09:53:13;35.17;;;30.10;;
19595;SDS011;9945;46.010;8.946;2023-01-31T09:55:47;35.80;;;30.90;;
19595;SDS011;9945;46.010;8.946;2023-01-31T09:58:21;39.55;;;30.65;;
19595;SDS011;9945;46.010;8.946;2023-01-31T10:01:02;35.15;;;31.23;;
19595;SDS011;9945;46.010;8.946;2023-01-31T10:03:44;34.63;;;30.02;;
19595;SDS011;9945;46.010;8.946;2023-01-31T10:06:23;36.00;;;31.50;;
19595;SDS011;9945;46.010;8.946;2023-01-31T10:08:55;37.25;;;30.27;;
19595;SDS011;9945;46.010;8.946;2023-01-31T10:11:29;43.72;;;30.88;;
19595;SDS011;9945;46.010;8.946;2023-01-31T10:14:00;44.55;;;29.92;;
19595;SDS011;9945;46.010;8.946;2023-01-31T10:16:40;39.13;;;30.35;;
19595;SDS011;9945;46.010;8.946;2023-01-31T10:19:13;38.83;;;30.43;;
19595;SDS011;9945;46.010;8.946;2023-01-31T10:21:50;44.55;;;30.67;;
19595;SDS011;9945;46.010;8.946;2023-01-31T10:24:22;37.50;;;28.80;;
19595;SDS011;9945;46.010;8.946;2023-01-31T10:26:54;34.85;;;28.42;;
19595;SDS011;9945;46.010;8.946;2023-01-31T10:29:27;35.17;;;30.27;;
19595;SDS011;9945;46.010;8.946;2023-01-31T10:31:59;37.97;;;29.60;;
19595;SDS011;9945;46.010;8.946;2023-01-31T10:34:33;39.40;;;31.48;;
19595;SDS011;9945;46.010;8.946;2023-01-31T10:37:06;34.58;;;29.52;;
19595;SDS011;9945;46.010;8.946;2023-01-31T10:39:39;33.95;;;30.45;;
19595;SDS011;9945;46.010;8.946;2023-01-31T10:42:11;32.10;;;28.60;;
19595;SDS011;9945;46.010;8.946;2023-01-31T10:44:46;38.28;;;30.17;;
19595;SDS011;9945;46.010;8.946;2023-01-31T10:47:18;37.60;;;28.52;;
19595;SDS011;9945;46.010;8.946;2023-01-31T10:49:47;34.20;;;29.77;;
19595;SDS011;9945;46.010;8.946;2023-01-31T10:55:28;33.63;;;29.77;;
19595;SDS011;9945;46.010;8.946;2023-01-31T10:58:16;31.02;;;27.70;;
19595;SDS011;9945;46.010;8.946;2023-01-31T11:00:46;33.75;;;24.55;;
19595;SDS011;9945;46.010;8.946;2023-01-31T11:03:13;28.40;;;25.40;;
19595;SDS011;9945;46.010;8.946;2023-01-31T11:05:44;33.63;;;30.02;;
19595;SDS011;9945;46.010;8.946;2023-01-31T11:08:24;31.77;;;26.35;;
19595;SDS011;9945;46.010;8.946;2023-01-31T11:10:55;31.27;;;28.08;;
19595;SDS011;9945;46.010;8.946;2023-01-31T11:13:23;31.10;;;26.23;;
19595;SDS011;9945;46.010;8.946;2023-01-31T11:15:51;29.52;;;26.35;;
19595;SDS011;9945;46.010;8.946;2023-01-31T11:18:26;26.48;;;23.67;;
19595;SDS011;9945;46.010;8.946;2023-01-31T11:20:56;30.08;;;24.85;;
19595;SDS011;9945;46.010;8.946;2023-01-31T11:23:25;27.20;;;22.95;;
19595;SDS011;9945;46.010;8.946;2023-01-31T11:25:55;29.10;;;24.25;;
19595;SDS011;9945;46.010;8.946;2023-01-31T11:28:23;26.25;;;23.38;;
19595;SDS011;9945;46.010;8.946;2023-01-31T11:30:58;25.98;;;22.23;;
19595;SDS011;9945;46.010;8.946;2023-01-31T11:36:21;59.40;;;47.00;;
19595;SDS011;9945;46.010;8.946;2023-01-31T11:38:50;27.55;;;24.45;;
19595;SDS011;9945;46.010;8.946;2023-01-31T11:41:31;23.42;;;20.95;;
19595;SDS011;9945;46.010;8.946;2023-01-31T11:44:10;28.83;;;25.17;;
19595;SDS011;9945;46.010;8.946;2023-01-31T11:46:41;20.33;;;17.23;;
19595;SDS011;9945;46.010;8.946;2023-01-31T11:49:11;18.70;;;16.70;;
19595;SDS011;9945;46.010;8.946;2023-01-31T11:51:41;15.73;;;14.05;;
19595;SDS011;9945;46.010;8.946;2023-01-31T11:54:10;14.55;;;12.73;;
19595;SDS011;9945;46.010;8.946;2023-01-31T11:56:42;14.73;;;13.25;;
19595;SDS011;9945;46.010;8.946;2023-01-31T11:59:11;21.23;;;18.08;;
19595;SDS011;9945;46.010;8.946;2023-01-31T12:01:44;27.77;;;23.50;;
19595;SDS011;9945;46.010;8.946;2023-01-31T12:04:14;38.08;;;27.67;;
19595;SDS011;9945;46.010;8.946;2023-01-31T12:06:55;28.27;;;24.90;;
19595;SDS011;9945;46.010;8.946;2023-01-31T12:09:28;30.70;;;27.42;;
19595;SDS011;9945;46.010;8.946;2023-01-31T12:12:08;36.90;;;28.67;;
19595;SDS011;9945;46.010;8.946;2023-01-31T12:14:47;27.98;;;25.02;;
19595;SDS011;9945;46.010;8.946;2023-01-31T12:17:15;28.20;;;24.05;;
19595;SDS011;9945;46.010;8.946;2023-01-31T12:19:47;33.78;;;24.75;;
19595;SDS011;9945;46.010;8.946;2023-01-31T12:22:29;25.52;;;22.75;;
19595;SDS011;9945;46.010;8.946;2023-01-31T12:25:02;21.75;;;19.50;;
19595;SDS011;9945;46.010;8.946;2023-01-31T12:27:44;23.40;;;20.80;;
19595;SDS011;9945;46.010;8.946;2023-01-31T12:30:29;23.65;;;21.27;;
19595;SDS011;9945;46.010;8.946;2023-01-31T12:33:16;22.65;;;19.85;;
19595;SDS011;9945;46.010;8.946;2023-01-31T12:36:07;25.25;;;19.17;;
19595;SDS011;9945;46.010;8.946;2023-01-31T12:38:54;19.40;;;16.65;;
19595;SDS011;9945;46.010;8.946;2023-01-31T12:41:30;21.02;;;17.83;;
19595;SDS011;9945;46.010;8.946;2023-01-31T12:44:03;20.63;;;15.68;;
19595;SDS011;9945;46.010;8.946;2023-01-31T12:46:55;16.05;;;14.52;;
19595;SDS011;9945;46.010;8.946;2023-01-31T12:52:31;20.05;;;14.15;;
19595;SDS011;9945;46.010;8.946;2023-01-31T12:55:10;13.55;;;11.15;;
19595;SDS011;9945;46.010;8.946;2023-01-31T12:57:48;16.92;;;14.32;;
19595;SDS011;9945;46.010;8.946;2023-01-31T13:00:24;15.73;;;14.05;;
19595;SDS011;9945;46.010;8.946;2023-01-31T13:03:11;13.77;;;12.38;;
19595;SDS011;9945;46.010;8.946;2023-01-31T13:05:53;23.38;;;17.83;;
19595;SDS011;9945;46.010;8.946;2023-01-31T13:08:23;23.20;;;19.90;;
19595;SDS011;9945;46.010;8.946;2023-01-31T13:10:55;18.15;;;15.48;;
19595;SDS011;9945;46.010;8.946;2023-01-31T13:13:28;16.83;;;15.00;;
19595;SDS011;9945;46.010;8.946;2023-01-31T13:15:59;13.38;;;11.75;;
19595;SDS011;9945;46.010;8.946;2023-01-31T13:18:31;15.77;;;13.45;;
19595;SDS011;9945;46.010;8.946;2023-01-31T13:21:00;16.45;;;14.00;;
19595;SDS011;9945;46.010;8.946;2023-01-31T13:23:30;17.52;;;15.30;;
19595;SDS011;9945;46.010;8.946;2023-01-31T13:26:04;18.35;;;16.42;;
19595;SDS011;9945;46.010;8.946;2023-01-31T13:28:35;19.60;;;14.32;;
19595;SDS011;9945;46.010;8.946;2023-01-31T13:31:10;13.00;;;11.07;;
19595;SDS011;9945;46.010;8.946;2023-01-31T13:33:43;11.60;;;10.43;;
19595;SDS011;9945;46.010;8.946;2023-01-31T13:36:18;14.10;;;10.20;;
19595;SDS011;9945;46.010;8.946;2023-01-31T13:38:49;10.27;;;9.38;;
19595;SDS011;9945;46.010;8.946;2023-01-31T13:41:19;9.60;;;8.80;;
19595;SDS011;9945;46.010;8.946;2023-01-31T13:43:51;18.42;;;16.50;;
19595;SDS011;9945;46.010;8.946;2023-01-31T13:46:21;20.55;;;16.23;;
19595;SDS011;9945;46.010;8.946;2023-01-31T13:48:50;14.35;;;12.98;;
19595;SDS011;9945;46.010;8.946;2023-01-31T13:51:24;11.27;;;10.18;;
19595;SDS011;9945;46.010;8.946;2023-01-31T13:53:59;10.82;;;9.80;;
19595;SDS011;9945;46.010;8.946;2023-01-31T13:56:32;18.75;;;16.60;;
19595;SDS011;9945;46.010;8.946;2023-01-31T13:59:01;18.52;;;16.70;;
19595;SDS011;9945;46.010;8.946;2023-01-31T14:01:33;19.85;;;17.58;;
19595;SDS011;9945;46.010;8.946;2023-01-31T14:16:01;12.63;;;10.65;;
19595;SDS011;9945;46.010;8.946;2023-01-31T14:24:17;17.17;;;14.15;;
19595;SDS011;9945;46.010;8.946;2023-01-31T14:26:49;22.08;;;14.95;;
19595;SDS011;9945;46.010;8.946;2023-01-31T14:29:18;17.17;;;15.38;;
19595;SDS011;9945;46.010;8.946;2023-01-31T14:31:48;17.00;;;15.20;;
19595;SDS011;9945;46.010;8.946;2023-01-31T14:34:17;15.23;;;12.45;;
19595;SDS011;9945;46.010;8.946;2023-01-31T14:36:52;15.30;;;12.35;;
19595;SDS011;9945;46.010;8.946;2023-01-31T14:45:52;16.95;;;14.77;;
19595;SDS011;9945;46.010;8.946;2023-01-31T14:48:46;19.10;;;15.40;;
19595;SDS011;9945;46.010;8.946;2023-01-31T14:51:35;18.27;;;14.05;;
19595;SDS011;9945;46.010;8.946;2023-01-31T14:54:21;16.95;;;14.38;;
19595;SDS011;9945;46.010;8.946;2023-01-31T14:57:09;16.55;;;13.02;;
19595;SDS011;9945;46.010;8.946;2023-01-31T14:59:40;12.60;;;11.13;;
19595;SDS011;9945;46.010;8.946;2023-01-31T15:02:36;16.10;;;12.95;;
19595;SDS011;9945;46.010;8.946;2023-01-31T15:05:15;18.23;;;14.40;;
19595;SDS011;9945;46.010;8.946;2023-01-31T15:07:57;21.23;;;15.33;;
19595;SDS011;9945;46.010;8.946;2023-01-31T15:16:07;13.88;;;10.20;;
19595;SDS011;9945;46.010;8.946;2023-01-31T15:18:44;10.20;;;7.55;;
19595;SDS011;9945;46.010;8.946;2023-01-31T15:21:16;13.07;;;9.20;;
19595;SDS011;9945;46.010;8.946;2023-01-31T15:23:48;19.85;;;13.95;;
19595;SDS011;9945;46.010;8.946;2023-01-31T15:26:16;23.75;;;14.98;;
19595;SDS011;9945;46.010;8.946;2023-01-31T15:28:44;21.75;;;16.30;;
19595;SDS011;9945;46.010;8.946;2023-01-31T15:31:15;18.30;;;14.98;;
19595;SDS011;9945;46.010;8.946;2023-01-31T15:33:44;21.23;;;14.52;;
19595;SDS011;9945;46.010;8.946;2023-01-31T15:36:17;18.67;;;15.90;;
19595;SDS011;9945;46.010;8.946;2023-01-31T15:38:51;25.95;;;16.15;;
19595;SDS011;9945;46.010;8.946;2023-01-31T15:41:21;21.48;;;15.85;;
19595;SDS011;9945;46.010;8.946;2023-01-31T15:43:50;18.05;;;14.95;;
19595;SDS011;9945;46.010;8.946;2023-01-31T15:46:22;22.10;;;14.73;;
19595;SDS011;9945;46.010;8.946;2023-01-31T15:48:51;17.05;;;13.82;;
19595;SDS011;9945;46.010;8.946;2023-01-31T15:51:19;16.08;;;10.52;;
19595;SDS011;9945;46.010;8.946;2023-01-31T15:53:47;20.35;;;14.88;;